createdAt,value
2019-02-05T00:01:46.209Z,6.33
2019-02-05T00:04:15.665Z,6.37
2019-02-05T00:06:44.914Z,7.70
2019-02-05T00:09:14.453Z,7.60
2019-02-05T00:11:43.747Z,6.40
2019-02-05T00:14:13.250Z,9.67
2019-02-05T00:16:42.976Z,7.63
2019-02-05T00:19:12.280Z,9.40
2019-02-05T00:21:41.764Z,7.00
2019-02-05T00:24:11.100Z,8.40
2019-02-05T00:26:40.730Z,8.80
2019-02-05T00:29:09.914Z,14.73
2019-02-05T00:31:39.596Z,7.37
2019-02-05T00:34:09.024Z,7.23
2019-02-05T00:36:38.291Z,13.50
2019-02-05T00:39:09.288Z,6.13
2019-02-05T00:41:38.551Z,6.57
2019-02-05T00:44:07.825Z,8.47
2019-02-05T00:46:37.145Z,6.43
2019-02-05T00:49:06.425Z,8.00
2019-02-05T00:51:35.843Z,8.00
2019-02-05T00:54:05.648Z,5.87
2019-02-05T00:56:34.857Z,10.37
2019-02-05T00:59:04.474Z,6.33
2019-02-05T01:01:36.180Z,7.63
2019-02-05T01:04:06.228Z,7.57
2019-02-05T01:06:35.434Z,9.63
2019-02-05T01:09:07.318Z,8.37
2019-02-05T01:11:36.821Z,11.40
2019-02-05T01:14:06.313Z,8.70
2019-02-05T01:16:35.639Z,11.70
2019-02-05T01:19:04.780Z,13.40
2019-02-05T01:21:34.162Z,24.10
2019-02-05T01:24:03.426Z,9.83
2019-02-05T01:26:32.715Z,11.50
2019-02-05T01:29:01.963Z,12.50
2019-02-05T01:31:31.385Z,13.53
2019-02-05T01:34:00.815Z,13.20
2019-02-05T01:36:30.057Z,8.77
2019-02-05T01:38:59.464Z,12.40
2019-02-05T01:41:30.859Z,12.00
2019-02-05T01:44:00.129Z,11.90
2019-02-05T01:46:29.430Z,10.33
2019-02-05T01:48:58.788Z,14.63
2019-02-05T01:51:28.110Z,10.97
2019-02-05T01:53:57.526Z,11.03
2019-02-05T01:56:26.918Z,14.40
2019-02-05T01:58:56.295Z,14.40
2019-02-05T02:01:25.713Z,12.80
2019-02-05T02:03:54.991Z,11.47
2019-02-05T02:06:24.860Z,15.30
2019-02-05T02:08:54.745Z,11.87
2019-02-05T02:11:24.448Z,21.70
2019-02-05T02:13:53.815Z,7.90
2019-02-05T02:16:23.016Z,17.23
2019-02-05T02:18:52.247Z,12.60
2019-02-05T02:21:21.525Z,12.60
2019-02-05T02:23:50.851Z,12.10
2019-02-05T02:26:20.211Z,26.03
2019-02-05T02:28:49.576Z,15.20
2019-02-05T02:31:18.757Z,26.33
2019-02-05T02:33:48.026Z,13.07
2019-02-05T02:36:17.291Z,12.00
2019-02-05T02:38:46.516Z,19.23
2019-02-05T02:41:15.850Z,17.40
2019-02-05T02:43:45.164Z,12.40
2019-02-05T02:46:14.403Z,18.80
2019-02-05T02:48:43.789Z,12.87
2019-02-05T02:51:13.027Z,21.13
2019-02-05T02:53:42.360Z,23.10
2019-02-05T02:56:11.773Z,20.90
2019-02-05T02:58:41.068Z,15.83
2019-02-05T03:01:10.443Z,13.03
2019-02-05T03:03:39.805Z,16.77
2019-02-05T03:06:09.258Z,18.17
2019-02-05T03:08:38.494Z,15.97
2019-02-05T03:11:07.887Z,30.17
2019-02-05T03:13:37.442Z,23.83
2019-02-05T03:16:06.737Z,16.40
2019-02-05T03:18:36.107Z,24.53
2019-02-05T03:21:05.403Z,25.63
2019-02-05T03:23:35.590Z,32.63
2019-02-05T03:26:04.833Z,42.90
2019-02-05T03:28:34.104Z,29.10
2019-02-05T03:31:03.894Z,18.07
2019-02-05T03:33:33.137Z,26.50
2019-02-05T03:36:02.462Z,34.47
2019-02-05T03:38:31.711Z,26.63
2019-02-05T03:41:06.232Z,17.83
2019-02-05T03:43:39.175Z,28.40
2019-02-05T03:46:16.163Z,18.43
2019-02-05T03:48:47.648Z,18.43
2019-02-05T03:51:47.798Z,17.70
2019-02-05T03:54:53.683Z,32.07
2019-02-05T03:58:09.536Z,37.83
2019-02-05T04:01:23.076Z,27.60
2019-02-05T04:04:24.929Z,23.83
2019-02-05T04:07:54.272Z,32.73
2019-02-05T04:10:58.268Z,24.93
2019-02-05T04:14:06.456Z,39.97
2019-02-05T04:17:34.565Z,19.77
2019-02-05T04:20:43.460Z,46.03
2019-02-05T04:24:05.812Z,28.47
2019-02-05T04:27:17.996Z,34.87
2019-02-05T04:30:14.235Z,34.97
2019-02-05T04:33:05.842Z,33.50
2019-02-05T04:36:07.990Z,30.60
2019-02-05T04:39:29.010Z,41.43
2019-02-05T04:42:13.161Z,37.70
2019-02-05T04:45:33.364Z,50.70
2019-02-05T04:48:30.973Z,53.47
2019-02-05T04:51:40.833Z,35.37
2019-02-05T04:54:52.747Z,40.20
2019-02-05T04:58:05.141Z,38.63
2019-02-05T05:00:57.845Z,37.50
2019-02-05T05:04:21.438Z,39.80
2019-02-05T05:07:06.012Z,52.30
2019-02-05T05:09:54.925Z,42.80
2019-02-05T05:12:24.931Z,48.40
2019-02-05T05:14:54.330Z,58.37
2019-02-05T05:17:23.866Z,49.20
2019-02-05T05:19:53.511Z,40.17
2019-02-05T05:22:23.007Z,67.37
2019-02-05T05:24:52.443Z,29.17
2019-02-05T05:27:22.547Z,37.17
2019-02-05T05:29:52.074Z,49.40
2019-02-05T05:32:21.874Z,59.53
2019-02-05T05:34:51.221Z,54.60
2019-02-05T05:37:18.846Z,88.73
2019-02-05T05:39:48.101Z,60.90
2019-02-05T05:42:17.515Z,59.70
2019-02-05T05:44:48.130Z,54.63
2019-02-05T05:47:17.535Z,43.73
2019-02-05T05:49:46.925Z,51.57
2019-02-05T05:52:16.281Z,41.57
2019-02-05T05:54:45.800Z,56.97
2019-02-05T05:57:15.038Z,51.60
2019-02-05T05:59:46.036Z,45.43
2019-02-05T06:02:16.030Z,40.63
2019-02-05T06:04:45.286Z,48.13
2019-02-05T06:07:14.657Z,81.00
2019-02-05T06:09:44.411Z,53.83
2019-02-05T06:12:13.869Z,43.77
2019-02-05T06:14:43.253Z,40.83
2019-02-05T06:17:12.674Z,32.40
2019-02-05T06:19:42.067Z,38.60
2019-02-05T06:22:11.433Z,40.10
2019-02-05T06:24:40.694Z,69.30
2019-02-05T06:27:10.029Z,51.10
2019-02-05T06:29:39.373Z,49.83
2019-02-05T06:32:08.952Z,45.00
2019-02-05T06:34:38.222Z,49.63
2019-02-05T06:37:08.577Z,43.57
2019-02-05T06:39:38.026Z,23.73
2019-02-05T06:42:07.317Z,33.97
2019-02-05T06:44:36.707Z,59.00
2019-02-05T06:47:06.354Z,41.50
2019-02-05T06:49:35.847Z,39.50
2019-02-05T06:52:05.272Z,33.23
2019-02-05T06:54:34.561Z,33.40
2019-02-05T06:57:03.881Z,58.63
2019-02-05T06:59:33.161Z,66.90
2019-02-05T07:02:02.375Z,68.80
2019-02-05T07:04:31.801Z,58.17
2019-02-05T07:07:01.482Z,47.67
2019-02-05T07:09:30.661Z,88.67
2019-02-05T07:11:59.959Z,64.67
2019-02-05T07:14:29.211Z,53.03
2019-02-05T07:16:58.587Z,90.43
2019-02-05T07:19:28.058Z,107.00
2019-02-05T07:21:57.338Z,62.83
2019-02-05T07:24:26.598Z,78.40
2019-02-05T07:26:55.937Z,61.90
2019-02-05T07:29:25.335Z,57.50
2019-02-05T07:31:54.554Z,60.37
2019-02-05T07:34:24.755Z,57.03
2019-02-05T07:36:57.413Z,58.67
2019-02-05T07:39:27.666Z,93.20
2019-02-05T07:41:57.057Z,56.30
2019-02-05T07:44:26.386Z,58.40
2019-02-05T07:46:55.646Z,61.37
2019-02-05T07:49:24.968Z,73.83
2019-02-05T07:51:54.530Z,51.20
2019-02-05T07:54:23.866Z,63.97
2019-02-05T07:56:53.242Z,61.57
2019-02-05T07:59:22.637Z,65.57
2019-02-05T08:01:51.929Z,80.07
2019-02-05T08:04:21.203Z,70.70
2019-02-05T08:06:52.468Z,56.50
2019-02-05T08:09:22.122Z,70.67
2019-02-05T08:11:51.421Z,39.73
2019-02-05T08:14:20.758Z,54.10
2019-02-05T08:16:50.009Z,55.33
2019-02-05T08:19:19.289Z,62.07
2019-02-05T08:21:48.633Z,51.77
2019-02-05T08:24:17.844Z,44.70
2019-02-05T08:26:47.073Z,59.23
2019-02-05T08:29:21.701Z,77.80
2019-02-05T08:31:47.436Z,58.17
2019-02-05T08:34:16.671Z,62.60
2019-02-05T08:36:45.952Z,52.60
2019-02-05T08:39:17.906Z,64.93
2019-02-05T08:41:46.205Z,64.47
2019-02-05T08:44:15.789Z,72.07
2019-02-05T08:46:45.029Z,69.67
2019-02-05T08:49:14.429Z,62.73
2019-02-05T08:51:43.649Z,63.80
2019-02-05T08:54:12.952Z,56.90
2019-02-05T08:56:42.212Z,62.13
2019-02-05T08:59:11.508Z,46.23
2019-02-05T09:01:41.128Z,51.57
2019-02-05T09:04:10.379Z,54.53
2019-02-05T09:06:39.699Z,53.30
2019-02-05T09:09:10.039Z,64.80
2019-02-05T09:11:39.540Z,66.80
2019-02-05T09:14:10.721Z,66.97
2019-02-05T09:16:40.014Z,53.93
2019-02-05T09:19:10.070Z,69.67
2019-02-05T09:21:39.329Z,65.60
2019-02-05T09:24:08.717Z,56.33
2019-02-05T09:26:38.110Z,68.57
2019-02-05T09:29:07.484Z,61.80
2019-02-05T09:31:36.825Z,65.63
2019-02-05T09:34:06.276Z,62.90
2019-02-05T09:36:35.736Z,64.27
2019-02-05T09:39:07.266Z,67.43
2019-02-05T09:41:36.737Z,66.73
2019-02-05T09:44:06.139Z,40.93
2019-02-05T09:46:35.516Z,70.40
2019-02-05T09:49:05.359Z,31.60
2019-02-05T09:51:34.828Z,48.77
2019-02-05T09:54:04.289Z,56.70
2019-02-05T09:56:33.774Z,67.47
2019-02-05T09:59:03.202Z,59.63
2019-02-05T10:01:32.468Z,46.03
2019-02-05T10:04:01.734Z,40.97
2019-02-05T10:06:31.316Z,50.83
2019-02-05T10:09:00.695Z,47.33
2019-02-05T10:11:30.044Z,46.83
2019-02-05T10:13:59.391Z,49.40
2019-02-05T10:16:28.850Z,61.50
2019-02-05T10:18:58.898Z,53.00
2019-02-05T10:21:28.515Z,29.23
2019-02-05T10:23:57.775Z,27.50
2019-02-05T10:26:27.048Z,35.77
2019-02-05T10:28:56.346Z,52.83
2019-02-05T10:31:25.609Z,36.43
2019-02-05T10:33:55.566Z,56.37
2019-02-05T10:36:24.972Z,26.37
2019-02-05T10:38:54.361Z,55.00
2019-02-05T10:41:23.693Z,41.17
2019-02-05T10:43:53.038Z,41.57
2019-02-05T10:46:22.372Z,33.17
2019-02-05T10:48:51.750Z,40.20
2019-02-05T10:51:21.181Z,23.90
2019-02-05T10:53:50.833Z,33.07
2019-02-05T10:56:20.249Z,32.63
2019-02-05T10:58:49.712Z,29.83
2019-02-05T11:01:19.074Z,34.00
2019-02-05T11:03:48.406Z,31.10
2019-02-05T11:06:19.981Z,27.70
2019-02-05T11:08:48.769Z,38.67
2019-02-05T11:11:18.111Z,40.20
2019-02-05T11:13:47.406Z,36.00
2019-02-05T11:16:16.730Z,31.17
2019-02-05T11:18:46.050Z,24.37
2019-02-05T11:21:15.312Z,56.43
2019-02-05T11:23:44.545Z,35.67
2019-02-05T11:26:14.311Z,32.57
2019-02-05T11:28:44.507Z,29.50
2019-02-05T11:31:13.839Z,37.10
2019-02-05T11:33:43.200Z,37.53
2019-02-05T11:36:12.616Z,32.13
2019-02-05T11:38:42.007Z,36.93
2019-02-05T11:41:13.669Z,35.87
2019-02-05T11:43:42.427Z,30.63
2019-02-05T11:46:11.908Z,37.13
2019-02-05T11:48:41.334Z,41.80
2019-02-05T11:51:10.687Z,27.20
2019-02-05T11:53:39.957Z,36.40
2019-02-05T11:56:09.196Z,46.73
2019-02-05T11:58:38.914Z,36.17
2019-02-05T12:01:21.327Z,38.97
2019-02-05T12:03:50.777Z,40.17
2019-02-05T12:06:19.969Z,35.80
2019-02-05T12:08:49.411Z,45.73
2019-02-05T12:11:18.721Z,43.17
2019-02-05T12:13:48.276Z,37.30
2019-02-05T12:16:17.703Z,42.50
2019-02-05T12:18:49.889Z,31.53
2019-02-05T12:21:19.230Z,26.27
2019-02-05T12:23:48.896Z,28.83
2019-02-05T12:26:18.186Z,47.13
2019-02-05T12:28:47.537Z,34.97
2019-02-05T12:31:17.833Z,31.50
2019-02-05T12:33:47.185Z,29.07
2019-02-05T12:36:16.529Z,30.20
2019-02-05T12:38:45.781Z,30.00
2019-02-05T12:41:15.120Z,26.80
2019-02-05T12:43:44.467Z,38.17
2019-02-05T12:46:13.871Z,31.70
2019-02-05T12:48:43.070Z,26.13
2019-02-05T12:51:12.440Z,20.13
2019-02-05T12:53:41.808Z,25.90
2019-02-05T12:56:11.117Z,18.97
2019-02-05T12:58:40.441Z,38.50
2019-02-05T13:01:09.930Z,37.97
2019-02-05T13:03:39.187Z,37.60
2019-02-05T13:06:08.555Z,39.83
2019-02-05T13:08:37.818Z,22.53
2019-02-05T13:11:07.259Z,37.33
2019-02-05T13:13:36.556Z,22.50
2019-02-05T13:16:06.183Z,27.73
2019-02-05T13:18:35.581Z,29.87
2019-02-05T13:21:04.941Z,25.93
2019-02-05T13:23:34.356Z,21.70
2019-02-05T13:26:03.629Z,26.57
2019-02-05T13:28:35.902Z,33.63
2019-02-05T13:31:08.104Z,26.87
2019-02-05T13:33:36.820Z,37.53
2019-02-05T13:36:10.248Z,31.70
2019-02-05T13:38:39.472Z,30.03
2019-02-05T13:41:08.788Z,35.77
2019-02-05T13:43:40.107Z,27.97
2019-02-05T13:46:09.510Z,33.10
2019-02-05T13:48:39.009Z,32.70
2019-02-05T13:51:27.354Z,41.87
2019-02-05T13:53:56.903Z,25.97
2019-02-05T13:56:26.254Z,35.20
2019-02-05T13:58:56.027Z,31.07
2019-02-05T14:01:25.509Z,34.47
2019-02-05T14:04:13.898Z,31.70
2019-02-05T14:06:43.355Z,29.77
2019-02-05T14:09:13.781Z,41.03
2019-02-05T14:11:43.504Z,28.57
2019-02-05T14:14:12.830Z,64.73
2019-02-05T14:17:01.320Z,22.37
2019-02-05T14:19:30.923Z,41.03
2019-02-05T14:22:00.518Z,28.33
2019-02-05T14:24:30.036Z,45.90
2019-02-05T14:26:59.405Z,27.50
2019-02-05T14:29:28.888Z,31.77
2019-02-05T14:31:58.583Z,44.90
2019-02-05T14:34:46.987Z,41.00
2019-02-05T14:37:16.529Z,61.17
2019-02-05T14:39:48.872Z,32.00
2019-02-05T14:42:17.175Z,37.00
2019-02-05T14:44:46.620Z,27.80
2019-02-05T14:47:16.059Z,28.63
2019-02-05T14:50:05.434Z,50.37
2019-02-05T14:53:10.219Z,55.53
2019-02-05T14:55:43.080Z,41.20
2019-02-05T14:58:15.512Z,38.70
2019-02-05T15:00:45.445Z,50.80
2019-02-05T15:03:15.792Z,57.47
2019-02-05T15:06:04.374Z,27.70
2019-02-05T15:08:34.058Z,28.13
2019-02-05T15:11:03.603Z,30.07
2019-02-05T15:13:33.319Z,39.43
2019-02-05T15:16:21.924Z,43.67
2019-02-05T15:19:10.423Z,32.50
2019-02-05T15:21:40.112Z,33.27
2019-02-05T15:24:09.877Z,30.83
2019-02-05T15:26:39.561Z,25.40
2019-02-05T15:29:09.161Z,29.43
2019-02-05T15:31:39.039Z,48.53
2019-02-05T15:34:29.335Z,24.30
2019-02-05T15:36:59.198Z,40.23
2019-02-05T15:39:28.718Z,48.97
2019-02-05T15:41:58.598Z,29.23
2019-02-05T15:44:28.142Z,46.23
2019-02-05T15:46:57.786Z,30.20
2019-02-05T15:49:27.395Z,43.30
2019-02-05T15:51:57.173Z,60.20
2019-02-05T15:54:26.887Z,57.77
2019-02-05T15:56:56.500Z,50.00
2019-02-05T15:59:26.249Z,88.63
2019-02-05T16:02:05.918Z,43.73
2019-02-05T16:04:27.454Z,75.83
2019-02-05T16:06:57.185Z,67.80
2019-02-05T16:09:26.749Z,55.17
2019-02-05T16:11:56.416Z,76.63
2019-02-05T16:14:25.957Z,65.97
2019-02-05T16:16:55.625Z,37.33
2019-02-05T16:19:25.290Z,61.37
2019-02-05T16:21:54.991Z,73.83
2019-02-05T16:24:24.655Z,46.97
2019-02-05T16:26:54.303Z,64.13
2019-02-05T16:29:23.997Z,63.70
2019-02-05T16:31:53.498Z,47.53
2019-02-05T16:34:23.063Z,42.47
2019-02-05T16:36:52.730Z,60.53
2019-02-05T16:39:22.403Z,53.40
2019-02-05T16:41:51.956Z,78.23
2019-02-05T16:44:21.572Z,67.57
2019-02-05T16:46:51.242Z,46.67
2019-02-05T16:49:22.404Z,74.33
2019-02-05T16:51:52.388Z,60.60
2019-02-05T16:54:22.467Z,88.63
2019-02-05T16:56:54.649Z,66.90
2019-02-05T16:59:24.283Z,67.00
2019-02-05T17:01:57.412Z,56.13
2019-02-05T17:04:27.248Z,98.73
2019-02-05T17:06:56.945Z,54.97
2019-02-05T17:09:26.726Z,65.87
2019-02-05T17:11:56.963Z,66.70
2019-02-05T17:14:26.758Z,68.93
2019-02-05T17:16:56.434Z,60.80
2019-02-05T17:19:26.037Z,50.87
2019-02-05T17:21:55.931Z,58.37
2019-02-05T17:24:25.674Z,62.93
2019-02-05T17:26:55.394Z,78.13
2019-02-05T17:29:24.935Z,59.87
2019-02-05T17:31:54.503Z,63.33
2019-02-05T17:34:24.154Z,61.50
2019-02-05T17:36:54.632Z,41.27
2019-02-05T17:39:24.227Z,57.90
2019-02-05T17:41:53.950Z,54.47
2019-02-05T17:44:23.628Z,67.00
2019-02-05T17:46:53.590Z,58.37
2019-02-05T17:49:23.372Z,59.60
2019-02-05T17:51:53.489Z,65.53
2019-02-05T17:54:23.073Z,59.87
2019-02-05T17:56:52.686Z,71.93
2019-02-05T17:59:22.519Z,69.10
2019-02-05T18:01:52.268Z,64.13
2019-02-05T18:04:22.103Z,76.90
2019-02-05T18:06:51.755Z,73.10
2019-02-05T18:09:21.511Z,66.23
2019-02-05T18:11:51.112Z,78.63
2019-02-05T18:14:20.825Z,83.37
2019-02-05T18:16:50.850Z,63.17
2019-02-05T18:19:20.563Z,91.07
2019-02-05T18:21:50.129Z,74.80
2019-02-05T18:24:19.930Z,71.37
2019-02-05T18:26:49.583Z,56.40
2019-02-05T18:29:19.217Z,75.70
2019-02-05T18:31:48.982Z,64.23
2019-02-05T18:34:18.637Z,78.40
2019-02-05T18:36:48.348Z,68.33
2019-02-05T18:39:18.132Z,66.43
2019-02-05T18:41:47.773Z,63.17
2019-02-05T18:44:17.351Z,74.70
2019-02-05T18:46:46.950Z,79.63
2019-02-05T18:49:17.161Z,77.43
2019-02-05T18:51:47.096Z,72.20
2019-02-05T18:54:16.729Z,71.23
2019-02-05T18:56:46.460Z,72.33
2019-02-05T18:59:16.103Z,77.00
2019-02-05T19:01:45.873Z,78.33
2019-02-05T19:04:16.064Z,68.47
2019-02-05T19:06:45.742Z,77.67
2019-02-05T19:09:15.642Z,75.67
2019-02-05T19:11:45.500Z,79.63
2019-02-05T19:14:15.229Z,81.13
2019-02-05T19:16:44.936Z,78.77
2019-02-05T19:19:15.518Z,82.03
2019-02-05T19:21:45.317Z,69.07
2019-02-05T19:24:31.108Z,86.03
2019-02-05T19:27:00.980Z,69.50
2019-02-05T19:29:31.029Z,76.37
2019-02-05T19:32:00.807Z,88.67
2019-02-05T19:34:30.392Z,72.40
2019-02-05T19:37:00.144Z,81.40
2019-02-05T19:39:29.775Z,82.27
2019-02-05T19:41:59.647Z,99.13
2019-02-05T19:44:29.627Z,80.00
2019-02-05T19:47:02.879Z,96.60
2019-02-05T19:49:44.283Z,84.27
2019-02-05T19:52:14.056Z,79.17
2019-02-05T19:54:43.811Z,80.50
2019-02-05T19:57:13.793Z,80.73
2019-02-05T19:59:43.810Z,75.47
2019-02-05T20:02:13.617Z,80.37
2019-02-05T20:04:43.503Z,80.20
2019-02-05T20:07:14.260Z,76.70
2019-02-05T20:09:43.968Z,73.27
2019-02-05T20:12:15.003Z,63.37
2019-02-05T20:14:45.057Z,63.27
2019-02-05T20:17:14.857Z,88.00
2019-02-05T20:19:44.539Z,62.40
2019-02-05T20:22:14.389Z,78.43
2019-02-05T20:24:45.071Z,80.00
2019-02-05T20:27:14.872Z,78.83
2019-02-05T20:29:46.247Z,98.03
2019-02-05T20:32:16.420Z,76.13
2019-02-05T20:34:46.088Z,74.13
2019-02-05T20:37:15.805Z,79.83
2019-02-05T20:39:45.471Z,64.87
2019-02-05T20:42:15.223Z,93.43
2019-02-05T20:44:45.222Z,72.60
2019-02-05T20:47:15.129Z,66.30
2019-02-05T20:49:44.768Z,67.73
2019-02-05T20:52:14.575Z,74.67
2019-02-05T20:54:44.571Z,72.30
2019-02-05T20:57:14.327Z,78.30
2019-02-05T20:59:43.887Z,73.53
2019-02-05T21:02:13.941Z,78.33
2019-02-05T21:04:48.556Z,68.80
2019-02-05T21:07:15.068Z,54.47
2019-02-05T21:09:44.907Z,84.43
2019-02-05T21:12:14.799Z,61.97
2019-02-05T21:14:44.514Z,83.90
2019-02-05T21:17:14.492Z,82.40
2019-02-05T21:19:44.172Z,74.57
2019-02-05T21:22:13.893Z,70.50
2019-02-05T21:24:43.722Z,88.93
2019-02-05T21:27:13.565Z,65.73
2019-02-05T21:29:43.233Z,75.27
2019-02-05T21:32:13.191Z,79.60
2019-02-05T21:34:42.825Z,88.10
2019-02-05T21:37:12.466Z,70.83
2019-02-05T21:39:42.185Z,81.83
2019-02-05T21:42:11.788Z,75.90
2019-02-05T21:44:42.228Z,85.97
2019-02-05T21:47:12.243Z,60.53
2019-02-05T21:49:41.870Z,71.83
2019-02-05T21:52:11.408Z,71.50
2019-02-05T21:54:41.016Z,74.97
2019-02-05T21:57:10.760Z,65.73
2019-02-05T21:59:40.293Z,64.73
2019-02-05T22:02:11.002Z,63.80
2019-02-05T22:04:40.612Z,67.83
2019-02-05T22:07:10.250Z,75.47
2019-02-05T22:09:39.978Z,68.80
2019-02-05T22:12:09.487Z,72.90
2019-02-05T22:14:38.830Z,88.70
2019-02-05T22:17:08.121Z,64.10
2019-02-05T22:19:37.389Z,63.50
2019-02-05T22:22:06.671Z,66.77
2019-02-05T22:24:36.003Z,64.43
2019-02-05T22:27:05.691Z,61.20
2019-02-05T22:29:35.287Z,58.73
2019-02-05T22:32:04.624Z,53.90
2019-02-05T22:34:39.264Z,56.07
2019-02-05T22:37:05.119Z,57.83
2019-02-05T22:39:34.890Z,56.70
2019-02-05T22:42:04.514Z,59.73
2019-02-05T22:44:33.786Z,57.30
2019-02-05T22:47:03.028Z,64.60
2019-02-05T22:49:32.258Z,53.67
2019-02-05T22:52:01.547Z,74.00
2019-02-05T22:54:30.933Z,56.50
2019-02-05T22:57:00.118Z,58.30
2019-02-05T22:59:29.666Z,75.37
2019-02-05T23:02:02.818Z,57.07
2019-02-05T23:05:13.127Z,54.43
2019-02-05T23:07:42.474Z,45.23
2019-02-05T23:10:32.826Z,63.97
2019-02-05T23:13:05.549Z,45.47
2019-02-05T23:15:35.074Z,46.23
2019-02-05T23:18:05.224Z,43.67
2019-02-05T23:20:34.530Z,70.03
2019-02-05T23:23:03.978Z,71.27
2019-02-05T23:25:33.191Z,45.80
2019-02-05T23:28:02.671Z,60.27
2019-02-05T23:30:32.110Z,36.93
2019-02-05T23:33:01.590Z,51.37
2019-02-05T23:35:32.752Z,37.33
2019-02-05T23:38:02.257Z,53.33
2019-02-05T23:40:31.956Z,46.03
2019-02-05T23:43:01.242Z,42.10
2019-02-05T23:45:30.657Z,48.47
2019-02-05T23:47:59.902Z,40.57
2019-02-05T23:50:29.230Z,52.50
2019-02-05T23:52:58.666Z,48.07
2019-02-05T23:55:28.092Z,38.47
2019-02-05T23:57:57.349Z,44.97
